Time;durP1;ratioP1;P1;durP2;ratioP2;P2;SDS_P1;SDS_P2;PMS_P1;PMS_P2;Temp;Humidity;BMP_temperature;BMP_pressure;BME280_temperature;BME280_humidity;BME280_pressure;Samples;Min_cycle;Max_cycle;Signal;HPM_P1;HPM_P2
2022/12/08 00:00:13;;;;;;;139.20;62.20;;;;;;;5.29;100.00;94459.63;5098633;28;20690;-84
2022/12/08 00:02:43;;;;;;;125.03;60.23;;;;;;;5.27;100.00;94466.78;5099841;28;20676;-83
2022/12/08 00:10:43;;;;;;;128.80;59.73;;;;;;;5.12;100.00;94477.19;5099508;28;20220;-81
2022/12/08 00:13:10;;;;;;;120.03;56.47;;;;;;;5.18;100.00;94467.09;5099899;28;20734;-80
2022/12/08 00:15:37;;;;;;;122.40;56.37;;;;;;;5.10;100.00;94478.34;5091713;28;20190;-81
2022/12/08 00:18:06;;;;;;;122.90;57.00;;;;;;;5.17;100.00;94486.13;5107590;28;20252;-80
2022/12/08 00:20:33;;;;;;;108.73;54.77;;;;;;;5.09;100.00;94489.63;5104597;28;20200;-79
2022/12/08 00:23:03;;;;;;;117.37;56.10;;;;;;;5.09;100.00;94485.28;5101619;28;20193;-86
2022/12/08 00:25:30;;;;;;;114.80;55.27;;;;;;;5.08;100.00;94477.72;5112160;28;20672;-86
2022/12/08 00:28:00;;;;;;;116.13;54.20;;;;;;;4.99;100.00;94478.88;5104206;28;20201;-85
2022/12/08 00:30:27;;;;;;;112.00;54.43;;;;;;;5.07;100.00;94491.59;5105443;28;20200;-86
2022/12/08 00:32:54;;;;;;;109.37;53.73;;;;;;;5.00;100.00;94483.03;5073091;28;20199;-86
2022/12/08 00:35:24;;;;;;;120.80;56.27;;;;;;;5.05;100.00;94496.16;5112250;28;20229;-83
2022/12/08 00:37:50;;;;;;;119.33;57.03;;;;;;;4.98;100.00;94493.53;5112295;28;20578;-83
2022/12/08 00:40:19;;;;;;;121.87;55.97;;;;;;;4.93;100.00;94497.66;5112997;28;20570;-88
2022/12/08 00:42:45;;;;;;;121.17;57.50;;;;;;;4.90;100.00;94496.25;5112418;28;20201;-88
2022/12/08 00:45:12;;;;;;;122.27;57.53;;;;;;;4.84;100.00;94498.78;5112465;28;20204;-87
2022/12/08 00:47:39;;;;;;;118.27;56.97;;;;;;;4.78;100.00;94486.63;5112835;28;20216;-88
2022/12/08 00:50:07;;;;;;;118.67;55.93;;;;;;;4.87;100.00;94485.53;5112804;28;20196;-88
2022/12/08 00:52:34;;;;;;;111.50;52.20;;;;;;;4.85;100.00;94500.38;5112756;28;20194;-89
2022/12/08 00:55:01;;;;;;;105.70;51.83;;;;;;;4.79;100.00;94499.31;5097047;28;20204;-89
2022/12/08 00:57:30;;;;;;;102.07;52.07;;;;;;;4.76;100.00;94494.53;5093399;28;20205;-88
2022/12/08 00:59:57;;;;;;;109.27;53.07;;;;;;;4.58;100.00;94450.47;5105543;28;20199;-92
2022/12/08 01:02:24;;;;;;;109.67;53.57;;;;;;;4.68;100.00;94465.56;5119674;28;20209;-91
2022/12/08 01:04:51;;;;;;;103.67;54.27;;;;;;;4.81;100.00;94481.91;5124793;28;20250;-90
2022/12/08 01:07:18;;;;;;;120.67;54.80;;;;;;;4.71;100.00;94470.34;5106650;28;20224;-90
2022/12/08 01:09:45;;;;;;;108.90;53.20;;;;;;;4.79;100.00;94481.28;5112338;28;20198;-88
2022/12/08 01:12:12;;;;;;;111.17;53.00;;;;;;;4.88;100.00;94492.25;5099351;28;20682;-89
2022/12/08 01:14:40;;;;;;;110.13;53.93;;;;;;;4.79;100.00;94495.97;5102553;28;20278;-88
2022/12/08 01:17:07;;;;;;;106.93;50.67;;;;;;;4.85;100.00;94493.41;5118463;28;20196;-88
2022/12/08 01:19:34;;;;;;;105.40;50.37;;;;;;;4.87;100.00;94488.91;5085516;28;20210;-88
2022/12/08 01:22:01;;;;;;;108.67;52.70;;;;;;;4.85;100.00;94477.19;5096217;28;20689;-87
2022/12/08 01:24:28;;;;;;;109.53;50.87;;;;;;;4.87;100.00;94478.59;5116079;28;20201;-88
2022/12/08 01:26:55;;;;;;;106.10;51.43;;;;;;;4.84;100.00;94478.97;5090732;28;20209;-90
2022/12/08 01:29:22;;;;;;;101.23;47.17;;;;;;;4.75;100.00;94489.59;5099537;28;20213;-93
2022/12/08 01:31:50;;;;;;;88.47;43.10;;;;;;;4.64;100.00;94456.63;5100979;28;20214;-90
2022/12/08 01:34:17;;;;;;;89.03;45.63;;;;;;;4.73;100.00;94474.34;5106690;28;20199;-89
2022/12/08 01:36:44;;;;;;;97.43;48.80;;;;;;;4.37;100.00;94455.63;5113480;28;20222;-90
2022/12/08 01:39:17;;;;;;;102.70;49.47;;;;;;;4.51;100.00;94476.13;5109600;28;20204;-90
2022/12/08 01:41:46;;;;;;;95.50;46.87;;;;;;;4.40;100.00;94470.69;5100112;28;20185;-90
2022/12/08 01:44:56;;;;;;;68.30;35.40;;;;;;;4.44;100.00;94467.53;5097340;28;20185;-90
2022/12/08 01:47:29;;;;;;;66.27;33.20;;;;;;;4.34;100.00;94461.94;5076301;28;20222;-87
2022/12/08 01:49:56;;;;;;;69.43;37.33;;;;;;;4.36;100.00;94461.72;5077099;28;20183;-86
2022/12/08 01:52:27;;;;;;;68.80;33.03;;;;;;;4.40;100.00;94463.78;5111034;28;20193;-89
2022/12/08 01:55:04;;;;;;;91.07;44.77;;;;;;;4.26;100.00;94422.69;5081814;28;20215;-85
2022/12/08 01:57:37;;;;;;;94.83;47.50;;;;;;;4.45;100.00;94461.44;5096684;28;20189;-82
2022/12/08 02:00:08;;;;;;;108.63;52.93;;;;;;;4.45;100.00;94445.19;5112084;28;20617;-83
2022/12/08 02:02:46;;;;;;;103.77;50.00;;;;;;;4.52;100.00;94459.72;5110098;28;20200;-84
2022/12/08 02:05:14;;;;;;;99.37;49.33;;;;;;;4.52;100.00;94457.16;5101270;28;20188;-83
2022/12/08 02:07:41;;;;;;;97.83;48.23;;;;;;;4.37;100.00;94438.41;5107068;28;20207;-84
2022/12/08 02:10:09;;;;;;;98.87;47.90;;;;;;;4.45;100.00;94450.34;5096331;28;20202;-85
2022/12/08 02:12:36;;;;;;;101.10;47.50;;;;;;;4.48;100.00;94453.34;5074276;28;20201;-89
2022/12/08 02:15:03;;;;;;;107.23;48.57;;;;;;;4.41;100.00;94446.56;5102376;28;20186;-91
2022/12/08 02:17:44;;;;;;;96.27;44.97;;;;;;;4.50;100.00;94453.19;5095259;28;20203;-92
2022/12/08 02:20:36;;;;;;;94.47;45.60;;;;;;;4.50;100.00;94443.66;5106262;28;20203;-83
2022/12/08 02:23:12;;;;;;;92.30;43.43;;;;;;;4.44;100.00;94441.06;5107997;28;20195;-83
2022/12/08 02:25:54;;;;;;;85.43;43.57;;;;;;;4.43;100.00;94445.41;5116949;28;20615;-82
2022/12/08 02:28:45;;;;;;;79.77;40.07;;;;;;;4.24;100.00;94430.56;5101859;28;20200;-84
2022/12/08 02:31:21;;;;;;;77.77;38.43;;;;;;;4.39;100.00;94457.03;5105766;28;20204;-83
2022/12/08 02:34:12;;;;;;;68.83;36.80;;;;;;;4.30;100.00;94444.50;5095195;28;20196;-82
2022/12/08 02:36:48;;;;;;;72.43;34.97;;;;;;;4.35;100.00;94442.16;5093849;28;20224;-82
2022/12/08 02:39:27;;;;;;;72.13;37.43;;;;;;;4.42;100.00;94448.13;5098641;28;20610;-90
2022/12/08 02:42:02;;;;;;;71.00;34.67;;;;;;;4.39;100.00;94446.72;5109805;28;20187;-91
2022/12/08 02:44:35;;;;;;;67.00;34.17;;;;;;;4.38;100.00;94450.31;5111967;28;20215;-90
2022/12/08 02:47:08;;;;;;;70.13;36.47;;;;;;;4.32;100.00;94445.91;5098094;28;20233;-90
2022/12/08 02:49:37;;;;;;;67.00;36.73;;;;;;;4.15;100.00;94425.75;5098981;28;20189;-94
2022/12/08 02:52:28;;;;;;;67.13;36.93;;;;;;;4.29;100.00;94438.56;5101729;28;20197;-92
2022/12/08 02:54:58;;;;;;;65.07;33.57;;;;;;;4.24;100.00;94440.84;5116530;28;20196;-92
2022/12/08 02:57:32;;;;;;;60.13;33.03;;;;;;;4.08;100.00;94412.84;5111513;28;20199;-92
2022/12/08 03:00:07;;;;;;;63.53;34.10;;;;;;;4.28;100.00;94431.81;5091037;28;20187;-91
2022/12/08 03:02:49;;;;;;;64.57;33.20;;;;;;;4.14;100.00;94430.09;5117369;28;20211;-89
2022/12/08 03:05:31;;;;;;;61.63;31.60;;;;;;;4.16;100.00;94440.19;5115832;28;20173;-93
2022/12/08 03:08:03;;;;;;;63.03;32.10;;;;;;;4.23;100.00;94431.56;5114550;28;20724;-92
2022/12/08 03:10:34;;;;;;;64.83;32.13;;;;;;;4.23;100.00;94434.13;5096185;28;20266;-91
2022/12/08 03:13:06;;;;;;;61.00;31.83;;;;;;;4.10;100.00;94428.88;5095127;28;20199;-92
2022/12/08 03:15:35;;;;;;;66.57;31.93;;;;;;;4.21;100.00;94441.25;5094274;28;20617;-82
2022/12/08 03:18:05;;;;;;;57.47;31.93;;;;;;;4.15;100.00;94430.91;5093383;28;20184;-87
2022/12/08 03:20:35;;;;;;;65.70;34.50;;;;;;;4.05;100.00;94410.63;5093631;28;20244;-88
2022/12/08 03:23:05;;;;;;;61.77;32.03;;;;;;;4.15;100.00;94431.69;5104072;28;20214;-88
2022/12/08 03:25:36;;;;;;;62.47;32.50;;;;;;;4.13;100.00;94432.88;5113473;28;20192;-89
2022/12/08 03:28:05;;;;;;;67.10;33.93;;;;;;;4.05;100.00;94432.97;5096528;28;20231;-83
2022/12/08 03:30:35;;;;;;;55.13;32.17;;;;;;;4.08;100.00;94435.16;5096210;28;20192;-84
2022/12/08 03:33:04;;;;;;;60.67;32.30;;;;;;;4.08;100.00;94448.81;5109670;28;20188;-82
2022/12/08 03:35:37;;;;;;;60.20;32.67;;;;;;;4.10;100.00;94449.44;5110240;28;20220;-88
2022/12/08 03:38:06;;;;;;;68.27;30.60;;;;;;;4.05;100.00;94446.63;5105403;28;20228;-89
2022/12/08 03:40:33;;;;;;;62.93;31.27;;;;;;;4.00;100.00;94442.03;5088520;28;20205;-88
2022/12/08 03:43:00;;;;;;;62.97;31.13;;;;;;;4.01;100.00;94435.91;5093831;28;20212;-88
2022/12/08 03:45:28;;;;;;;66.17;34.37;;;;;;;4.07;100.00;94438.75;5104414;28;20196;-81
2022/12/08 03:47:54;;;;;;;66.57;34.30;;;;;;;4.04;100.00;94439.88;5098120;28;20227;-82
2022/12/08 03:50:21;;;;;;;67.97;37.23;;;;;;;3.97;100.00;94436.47;5111768;28;20204;-88
2022/12/08 03:52:50;;;;;;;66.13;36.27;;;;;;;4.04;100.00;94441.69;5111690;28;20199;-88
2022/12/08 03:55:17;;;;;;;74.87;36.83;;;;;;;4.09;100.00;94447.84;5094584;28;20204;-89
2022/12/08 03:57:44;;;;;;;67.63;35.23;;;;;;;4.14;100.00;94442.16;5093885;28;20271;-90
2022/12/08 04:00:16;;;;;;;75.37;39.97;;;;;;;4.09;100.00;94450.44;5093996;28;20709;-87
2022/12/08 04:02:43;;;;;;;84.03;41.97;;;;;;;4.05;100.00;94450.97;5105551;28;20686;-88
2022/12/08 04:05:09;;;;;;;76.43;38.93;;;;;;;4.07;100.00;94454.16;5101574;28;20196;-80
2022/12/08 04:07:36;;;;;;;74.03;38.17;;;;;;;4.08;100.00;94442.88;5099615;28;20219;-82
2022/12/08 04:10:06;;;;;;;78.07;38.87;;;;;;;4.20;100.00;94457.66;5109766;28;20203;-83
2022/12/08 04:12:32;;;;;;;73.50;37.80;;;;;;;4.11;100.00;94456.19;5110189;28;20203;-82
2022/12/08 04:15:00;;;;;;;80.23;38.53;;;;;;;4.22;100.00;94457.44;5094701;28;20230;-81
2022/12/08 04:17:27;;;;;;;83.00;41.83;;;;;;;4.26;100.00;94456.91;5108486;28;20188;-83
2022/12/08 04:19:54;;;;;;;86.17;45.00;;;;;;;4.25;100.00;94447.59;5108946;28;20188;-81
2022/12/08 04:22:21;;;;;;;86.37;44.60;;;;;;;4.18;100.00;94438.25;5102998;28;20227;-81
2022/12/08 04:24:48;;;;;;;83.10;43.10;;;;;;;4.22;100.00;94460.81;5100155;28;20639;-82
2022/12/08 04:27:16;;;;;;;83.63;41.17;;;;;;;4.14;100.00;94455.81;5088896;28;20236;-81
2022/12/08 04:29:43;;;;;;;79.77;40.27;;;;;;;4.03;100.00;94460.63;5104608;28;20658;-80
2022/12/08 04:32:10;;;;;;;77.63;39.53;;;;;;;4.01;100.00;94455.69;5100743;28;20556;-80
2022/12/08 04:34:36;;;;;;;71.33;37.23;;;;;;;4.04;100.00;94460.44;5096755;28;20196;-81
2022/12/08 04:37:03;;;;;;;77.73;37.73;;;;;;;4.06;100.00;94460.28;5105933;28;20199;-80
2022/12/08 04:39:30;;;;;;;87.47;43.03;;;;;;;4.05;100.00;94462.03;5102820;28;20646;-81
2022/12/08 04:41:57;;;;;;;83.10;44.33;;;;;;;4.13;100.00;94469.63;5098764;28;20188;-80
2022/12/08 04:44:25;;;;;;;80.53;43.27;;;;;;;4.18;100.00;94457.03;5104805;28;20189;-80
2022/12/08 04:46:52;;;;;;;87.07;43.07;;;;;;;4.20;100.00;94459.41;5101376;28;20229;-80
2022/12/08 04:49:19;;;;;;;81.90;41.63;;;;;;;4.27;100.00;94463.63;5109544;28;20219;-80
2022/12/08 04:51:46;;;;;;;76.97;41.13;;;;;;;4.36;100.00;94459.97;5103309;28;20196;-81
2022/12/08 04:54:13;;;;;;;84.87;40.03;;;;;;;4.40;100.00;94465.53;5094912;28;20193;-82
2022/12/08 04:56:39;;;;;;;73.70;37.93;;;;;;;4.44;100.00;94464.19;5109788;28;20189;-82
2022/12/08 04:59:06;;;;;;;61.87;33.70;;;;;;;4.46;100.00;94470.75;5107591;28;20188;-83
2022/12/08 05:01:34;;;;;;;67.83;33.07;;;;;;;4.50;100.00;94464.25;5112649;28;20251;-82
2022/12/08 05:04:01;;;;;;;68.30;34.97;;;;;;;4.50;100.00;94461.66;5084186;28;20250;-82
2022/12/08 05:06:28;;;;;;;66.50;32.43;;;;;;;4.62;100.00;94469.69;5097666;28;20189;-82
2022/12/08 05:08:55;;;;;;;61.50;32.47;;;;;;;4.62;100.00;94489.50;5074777;28;20205;-82
2022/12/08 05:11:22;;;;;;;56.07;30.63;;;;;;;4.65;100.00;94489.91;5112758;28;20654;-81
2022/12/08 05:13:49;;;;;;;57.63;31.17;;;;;;;4.68;100.00;94483.56;5108867;28;20189;-82
2022/12/08 05:16:16;;;;;;;56.43;30.13;;;;;;;4.70;100.00;94471.34;5111671;28;20190;-83
2022/12/08 05:18:44;;;;;;;60.17;28.93;;;;;;;4.67;100.00;94471.72;5109532;28;20241;-83
2022/12/08 05:21:11;;;;;;;51.63;28.97;;;;;;;4.70;100.00;94489.34;5116357;28;20200;-88
2022/12/08 05:23:38;;;;;;;51.90;27.57;;;;;;;4.73;100.00;94491.56;5117772;28;20200;-87
2022/12/08 05:26:06;;;;;;;53.77;27.70;;;;;;;4.75;100.00;94495.53;5117501;28;20193;-87
2022/12/08 05:28:33;;;;;;;57.07;28.03;;;;;;;4.82;100.00;94487.88;5116353;28;20224;-86
2022/12/08 05:31:01;;;;;;;55.30;26.00;;;;;;;4.80;100.00;94479.50;5107533;28;20707;-83
2022/12/08 05:33:28;;;;;;;55.87;27.23;;;;;;;4.79;100.00;94498.53;5121665;28;20193;-94
2022/12/08 05:35:56;;;;;;;54.40;26.67;;;;;;;4.75;100.00;94510.97;5132550;28;20238;-91
2022/12/08 05:38:23;;;;;;;57.10;28.27;;;;;;;4.71;100.00;94502.03;5120667;28;20191;-89
2022/12/08 05:40:50;;;;;;;70.47;33.40;;;;;;;4.67;100.00;94505.16;5127849;28;20199;-90
2022/12/08 05:43:17;;;;;;;62.00;29.77;;;;;;;4.55;100.00;94479.13;5116499;28;20178;-92
2022/12/08 05:45:47;;;;;;;64.10;32.73;;;;;;;4.67;100.00;94507.75;5112487;28;20203;-90
2022/12/08 05:48:14;;;;;;;75.40;36.97;;;;;;;4.41;100.00;94480.00;5120109;28;20212;-92
2022/12/08 05:50:53;;;;;;;65.13;33.50;;;;;;;4.37;100.00;94486.47;5117348;28;20235;-94
2022/12/08 05:53:21;;;;;;;72.93;34.27;;;;;;;4.46;100.00;94505.97;5109630;28;20275;-83
2022/12/08 05:55:51;;;;;;;73.00;36.57;;;;;;;4.34;100.00;94484.28;5111518;28;20195;-82
2022/12/08 05:58:22;;;;;;;63.10;32.67;;;;;;;4.44;100.00;94505.38;5116032;28;20202;-83
2022/12/08 06:00:51;;;;;;;81.90;38.80;;;;;;;4.39;100.00;94505.91;5122039;28;20190;-85
2022/12/08 06:03:21;;;;;;;92.03;41.23;;;;;;;4.36;100.00;94508.03;5114641;28;20193;-83
2022/12/08 06:05:50;;;;;;;82.93;41.53;;;;;;;4.41;100.00;94513.44;5102785;28;20193;-83
2022/12/08 06:08:17;;;;;;;94.10;44.67;;;;;;;4.29;100.00;94509.75;5112309;28;20209;-82
2022/12/08 06:10:45;;;;;;;92.93;44.97;;;;;;;4.02;100.00;94482.97;5114869;28;20200;-83
2022/12/08 06:13:12;;;;;;;88.63;42.40;;;;;;;4.26;100.00;94521.22;5097980;28;20194;-83
2022/12/08 06:15:40;;;;;;;84.80;42.17;;;;;;;4.25;100.00;94524.75;5115825;28;20209;-83
2022/12/08 06:18:07;;;;;;;83.10;39.67;;;;;;;4.30;100.00;94519.84;5113087;28;20188;-83
2022/12/08 06:20:34;;;;;;;67.57;32.67;;;;;;;4.37;100.00;94523.28;5103991;28;20201;-83
2022/12/08 06:23:02;;;;;;;79.80;39.73;;;;;;;4.33;100.00;94527.19;5114978;28;20586;-82
2022/12/08 06:25:29;;;;;;;98.20;47.07;;;;;;;4.31;100.00;94523.22;5114760;28;20202;-82
2022/12/08 06:27:57;;;;;;;159.57;70.27;;;;;;;3.98;100.00;94477.38;5082750;28;20216;-83
2022/12/08 06:30:24;;;;;;;143.80;64.37;;;;;;;4.32;100.00;94520.50;5110161;28;20193;-83
2022/12/08 06:32:51;;;;;;;114.20;57.80;;;;;;;4.38;100.00;94521.53;5100109;28;20271;-84
2022/12/08 06:35:18;;;;;;;120.40;61.47;;;;;;;4.43;100.00;94516.63;5103906;28;20232;-83
2022/12/08 06:37:45;;;;;;;116.10;58.23;;;;;;;4.38;100.00;94503.53;5107865;28;20180;-83
2022/12/08 06:40:12;;;;;;;124.67;58.73;;;;;;;4.56;100.00;94525.25;5115110;28;20243;-83
2022/12/08 06:42:46;;;;;;;124.20;61.60;;;;;;;4.62;100.00;94517.78;5106655;28;20201;-82
2022/12/08 06:45:16;;;;;;;139.27;69.87;;;;;;;4.63;100.00;94524.50;5107408;28;20180;-83
2022/12/08 06:47:43;;;;;;;134.10;66.97;;;;;;;4.66;100.00;94517.22;5104779;28;20593;-83
2022/12/08 06:50:12;;;;;;;138.63;66.13;;;;;;;4.61;100.00;94509.28;5116378;28;20556;-89
2022/12/08 06:52:39;;;;;;;135.27;64.80;;;;;;;4.62;100.00;94504.94;5116793;28;20205;-86
2022/12/08 06:55:07;;;;;;;137.80;64.83;;;;;;;4.42;100.00;94481.56;5104625;28;20203;-86
2022/12/08 06:57:34;;;;;;;140.77;62.37;;;;;;;4.72;100.00;94521.63;5108127;28;20226;-87
2022/12/08 07:00:01;;;;;;;148.87;73.27;;;;;;;4.57;100.00;94490.03;5101270;28;20225;-86
2022/12/08 07:02:29;;;;;;;137.50;70.20;;;;;;;4.62;100.00;94510.84;5120533;28;20183;-86
2022/12/08 07:04:56;;;;;;;147.63;72.53;;;;;;;4.61;100.00;94509.28;5107606;28;20214;-85
2022/12/08 07:07:23;;;;;;;161.17;77.83;;;;;;;4.64;100.00;94539.78;5111705;28;20645;-87
2022/12/08 07:09:50;;;;;;;160.13;79.17;;;;;;;4.62;100.00;94534.00;5109518;28;20193;-89
2022/12/08 07:12:17;;;;;;;158.40;80.00;;;;;;;4.77;100.00;94544.25;5128541;28;20185;-86
2022/12/08 07:14:44;;;;;;;163.67;82.47;;;;;;;4.74;100.00;94542.84;5119835;28;20192;-85
2022/12/08 07:17:11;;;;;;;116.90;59.20;;;;;;;4.62;100.00;94541.72;5097778;28;20202;-86
2022/12/08 07:19:39;;;;;;;72.70;38.73;;;;;;;4.76;100.00;94551.16;5120345;28;20195;-85
2022/12/08 07:22:06;;;;;;;67.77;34.23;;;;;;;4.84;100.00;94543.31;5122292;28;20197;-84
2022/12/08 07:24:33;;;;;;;61.80;32.87;;;;;;;4.99;100.00;94548.41;5121152;28;20197;-86
2022/12/08 07:26:59;;;;;;;62.50;30.50;;;;;;;5.12;100.00;94561.38;5113395;28;20244;-81
2022/12/08 07:29:26;;;;;;;54.07;27.57;;;;;;;5.13;100.00;94556.03;5112048;28;20210;-85
2022/12/08 07:31:53;;;;;;;52.53;27.23;;;;;;;5.25;100.00;94570.97;5109873;28;20248;-82
2022/12/08 07:34:20;;;;;;;47.17;26.33;;;;;;;5.22;100.00;94567.00;5117118;28;20207;-81
2022/12/08 07:36:48;;;;;;;47.63;26.50;;;;;;;5.32;100.00;94558.94;5102141;28;20235;-81
2022/12/08 07:39:15;;;;;;;52.97;26.40;;;;;;;5.27;100.00;94549.19;5104470;28;20197;-82
2022/12/08 07:41:42;;;;;;;48.53;24.73;;;;;;;5.43;100.00;94558.41;5107336;28;20213;-81
2022/12/08 07:44:09;;;;;;;48.50;25.97;;;;;;;5.45;100.00;94571.91;5111440;28;20243;-82
2022/12/08 07:46:35;;;;;;;44.93;24.20;;;;;;;5.44;100.00;94547.13;5103993;28;20688;-81
2022/12/08 07:49:02;;;;;;;57.13;26.20;;;;;;;5.60;100.00;94565.66;5117289;28;20210;-83
2022/12/08 07:51:29;;;;;;;45.33;23.80;;;;;;;5.60;100.00;94557.91;5102044;28;20618;-81
2022/12/08 07:53:58;;;;;;;47.53;25.77;;;;;;;5.62;100.00;94561.13;5093279;28;20666;-83
2022/12/08 07:56:25;;;;;;;53.57;25.73;;;;;;;5.67;100.00;94563.13;5095225;28;20215;-83
2022/12/08 07:58:51;;;;;;;51.33;28.00;;;;;;;5.69;100.00;94556.78;5102620;28;20646;-83
2022/12/08 08:01:24;;;;;;;53.30;28.17;;;;;;;5.81;100.00;94561.41;5095585;28;20560;-84
2022/12/08 08:03:51;;;;;;;57.87;28.47;;;;;;;5.84;100.00;94559.25;5116002;28;20191;-83
2022/12/08 08:06:18;;;;;;;55.20;27.60;;;;;;;5.92;100.00;94560.88;5113028;28;20198;-82
2022/12/08 08:08:45;;;;;;;61.83;30.20;;;;;;;6.00;100.00;94568.50;5089515;28;20213;-83
2022/12/08 08:11:13;;;;;;;60.57;29.43;;;;;;;5.99;100.00;94541.91;5102733;28;20199;-83
2022/12/08 08:13:40;;;;;;;59.53;29.80;;;;;;;6.15;100.00;94566.53;5106810;28;20195;-84
2022/12/08 08:16:09;;;;;;;62.90;30.50;;;;;;;6.11;100.00;94563.56;5108313;28;20658;-83
2022/12/08 08:18:38;;;;;;;73.07;35.10;;;;;;;6.17;100.00;94559.44;5104712;28;20206;-83
2022/12/08 08:21:05;;;;;;;78.10;37.37;;;;;;;6.15;100.00;94545.91;5106815;28;20200;-84
2022/12/08 08:23:33;;;;;;;92.87;42.10;;;;;;;6.16;100.00;94553.47;5105805;28;20192;-82
2022/12/08 08:26:04;;;;;;;74.10;38.50;;;;;;;6.24;100.00;94560.22;5107691;28;20627;-83
2022/12/08 08:28:33;;;;;;;84.47;39.37;;;;;;;6.35;100.00;94579.53;5101428;28;20223;-84
2022/12/08 08:31:01;;;;;;;90.87;41.07;;;;;;;6.38;100.00;94574.00;5093408;28;20286;-85
2022/12/08 08:33:28;;;;;;;83.10;39.07;;;;;;;6.52;100.00;94568.66;5092685;28;20192;-84
2022/12/08 08:35:55;;;;;;;77.33;39.20;;;;;;;6.58;100.00;94575.63;5083882;28;20254;-86
2022/12/08 08:38:23;;;;;;;72.87;36.60;;;;;;;6.55;100.00;94564.91;5097442;28;20191;-83
2022/12/08 08:40:50;;;;;;;65.43;34.97;;;;;;;6.57;100.00;94563.72;5109529;28;20200;-85
2022/12/08 08:43:28;;;;;;;61.30;34.10;;;;;;;6.51;100.00;94567.06;5089523;28;20713;-84
2022/12/08 08:45:58;;;;;;;63.97;33.87;;;;;;;6.37;100.00;94549.97;5102966;28;20211;-84
2022/12/08 08:48:33;;;;;;;64.73;34.03;;;;;;;6.44;100.00;94563.66;5094969;28;20220;-85
2022/12/08 08:51:08;;;;;;;68.77;34.00;;;;;;;6.49;100.00;94560.50;5098403;28;20199;-85
2022/12/08 08:53:35;;;;;;;77.10;35.03;;;;;;;6.50;100.00;94555.16;5103586;28;20196;-83
2022/12/08 08:56:03;;;;;;;75.00;35.60;;;;;;;6.53;100.00;94549.59;5106239;28;20202;-95
2022/12/08 08:58:30;;;;;;;68.33;36.80;;;;;;;6.66;100.00;94559.16;5127823;28;20213;-93
2022/12/08 09:00:59;;;;;;;69.90;35.33;;;;;;;6.71;100.00;94541.28;5113562;28;20192;-86
2022/12/08 09:03:26;;;;;;;73.27;35.93;;;;;;;6.79;100.00;94547.06;5113702;28;20208;-82
2022/12/08 09:05:54;;;;;;;73.77;35.87;;;;;;;6.94;100.00;94544.28;5119123;28;20258;-83
2022/12/08 09:08:21;;;;;;;68.20;34.27;;;;;;;7.04;100.00;94549.06;5122991;28;20215;-83
2022/12/08 09:10:48;;;;;;;68.93;32.73;;;;;;;7.10;100.00;94548.28;5117082;28;20211;-82
2022/12/08 09:13:15;;;;;;;61.43;30.20;;;;;;;7.01;100.00;94508.94;5109558;28;20196;-82
2022/12/08 09:15:42;;;;;;;55.70;28.93;;;;;;;7.23;100.00;94537.94;5103825;28;20197;-84
2022/12/08 09:18:11;;;;;;;66.40;27.83;;;;;;;7.16;100.00;94506.13;5096928;28;20209;-83
2022/12/08 09:20:39;;;;;;;56.90;29.40;;;;;;;7.42;100.00;94531.94;5092617;28;20199;-83
2022/12/08 09:23:06;;;;;;;55.77;27.07;;;;;;;7.53;100.00;94538.28;5116320;28;20188;-84
2022/12/08 09:25:33;;;;;;;47.70;23.33;;;;;;;7.68;100.00;94541.44;5104481;28;20287;-84
2022/12/08 09:28:00;;;;;;;40.60;22.10;;;;;;;7.70;100.00;94532.50;5101242;28;20682;-93
2022/12/08 09:30:27;;;;;;;39.30;21.33;;;;;;;7.82;100.00;94527.47;5095869;28;20189;-85
2022/12/08 09:32:54;;;;;;;36.83;19.40;;;;;;;8.02;100.00;94541.91;5095746;28;20200;-85
2022/12/08 09:35:23;;;;;;;35.17;18.67;;;;;;;7.97;100.00;94510.69;5096741;28;20232;-85
2022/12/08 09:37:50;;;;;;;36.53;19.57;;;;;;;8.28;100.00;94530.69;5112881;28;20193;-87
2022/12/08 09:40:20;;;;;;;36.40;20.57;;;;;;;8.29;100.00;94518.53;5109899;28;20654;-86
2022/12/08 09:42:52;;;;;;;44.23;21.47;;;;;;;8.48;100.00;94530.63;5113241;28;20192;-86
2022/12/08 09:45:20;;;;;;;50.87;26.70;;;;;;;8.52;100.00;94526.59;5094680;28;20200;-85
2022/12/08 09:47:57;;;;;;;56.90;30.07;;;;;;;8.75;100.00;94524.25;5107279;28;20198;-87
2022/12/08 09:50:44;;;;;;;59.80;31.07;;;;;;;9.33;100.00;94514.44;5081762;28;20181;-90
2022/12/08 09:53:16;;;;;;;55.97;27.47;;;;;;;9.97;97.37;94505.38;5093155;28;20261;-85
2022/12/08 09:55:48;;;;;;;55.40;28.10;;;;;;;10.70;94.67;94524.28;5103259;28;20188;-85
2022/12/08 09:58:21;;;;;;;52.73;26.40;;;;;;;11.00;91.52;94514.59;5110909;28;20196;-84
2022/12/08 10:00:48;;;;;;;44.90;26.00;;;;;;;11.44;90.14;94487.28;5103561;28;20647;-84
2022/12/08 10:03:15;;;;;;;48.00;25.03;;;;;;;11.91;88.10;94477.63;5106642;28;20188;-83
2022/12/08 10:05:54;;;;;;;45.40;24.97;;;;;;;12.15;86.01;94488.78;5099198;28;20571;-86
2022/12/08 10:08:29;;;;;;;60.73;26.23;;;;;;;12.47;85.80;94501.13;5110934;28;20196;-94
2022/12/08 10:11:13;;;;;;;41.00;22.10;;;;;;;13.05;83.23;94506.03;5123512;28;20187;-94
2022/12/08 10:13:50;;;;;;;25.90;15.30;;;;;;;13.92;79.93;94508.13;5119933;28;20192;-85
2022/12/08 10:16:24;;;;;;;24.37;13.93;;;;;;;14.78;75.69;94497.63;5095488;28;20207;-86
2022/12/08 10:19:02;;;;;;;29.63;13.73;;;;;;;15.64;73.18;94500.19;5107442;28;20185;-93
2022/12/08 10:21:31;;;;;;;27.10;13.70;;;;;;;16.57;70.39;94496.69;5102167;28;20655;-85
2022/12/08 10:24:04;;;;;;;23.67;12.40;;;;;;;17.47;66.23;94503.09;5087863;28;20184;-82
2022/12/08 10:26:33;;;;;;;18.07;12.07;;;;;;;18.15;64.29;94501.69;5098417;28;20203;-84
2022/12/08 10:29:05;;;;;;;27.03;12.30;;;;;;;18.59;61.71;94478.88;5094161;28;20212;-82
2022/12/08 10:31:32;;;;;;;18.90;11.50;;;;;;;18.39;61.76;94509.72;5094318;28;20212;-82
2022/12/08 10:34:01;;;;;;;24.43;12.63;;;;;;;17.77;62.90;94497.84;5093729;28;20212;-82
2022/12/08 10:36:51;;;;;;;27.23;13.07;;;;;;;17.52;64.00;94505.69;5098230;28;20231;-92
2022/12/08 10:39:32;;;;;;;21.90;12.73;;;;;;;17.61;64.32;94495.47;5103916;28;20196;-93
2022/12/08 10:42:07;;;;;;;20.67;13.17;;;;;;;18.37;62.06;94498.69;5098888;28;20185;-92
2022/12/08 10:44:48;;;;;;;21.40;13.33;;;;;;;19.02;60.32;94505.47;5095539;28;20218;-83
2022/12/08 10:47:15;;;;;;;28.20;13.80;;;;;;;19.69;58.48;94483.63;5099173;28;20191;-83
2022/12/08 10:49:45;;;;;;;24.23;14.50;;;;;;;20.09;56.04;94483.19;5111214;28;20226;-83
2022/12/08 10:52:24;;;;;;;22.93;14.97;;;;;;;21.04;55.51;94498.91;5112740;28;20272;-82
2022/12/08 10:54:52;;;;;;;37.75;17.05;;;;;;;21.78;52.13;94468.94;5094000;28;20207;-83
2022/12/08 10:57:24;;;;;;;32.22;16.17;;;;;;;22.23;50.12;94482.41;5085810;28;20552;-83
2022/12/08 10:59:56;;;;;;;37.00;15.68;;;;;;;21.95;49.35;94484.28;5105459;28;20753;-82
2022/12/08 11:02:23;;;;;;;30.33;16.70;;;;;;;21.70;49.26;94461.66;5093924;28;20227;-83
2022/12/08 11:05:00;;;;;;;28.00;15.68;;;;;;;22.10;48.27;94489.28;5098497;28;20642;-82
2022/12/08 11:07:29;;;;;;;23.30;14.35;;;;;;;22.45;47.18;94475.34;5105739;28;20198;-82
2022/12/08 11:09:57;;;;;;;21.35;13.65;;;;;;;22.83;46.65;94478.53;5099710;28;20222;-82
2022/12/08 11:12:30;;;;;;;22.55;13.32;;;;;;;22.91;45.60;94485.81;5099389;28;20200;-83
2022/12/08 11:15:01;;;;;;;23.65;14.05;;;;;;;22.06;46.10;94480.34;5106164;28;20188;-82
2022/12/08 11:17:38;;;;;;;25.00;14.82;;;;;;;21.42;48.09;94452.09;5107969;28;20184;-82
2022/12/08 11:20:20;;;;;;;23.05;13.95;;;;;;;20.84;49.11;94457.72;5099651;28;20199;-82
2022/12/08 11:22:53;;;;;;;22.85;12.93;;;;;;;20.29;51.00;94453.97;5111713;28;20202;-82
2022/12/08 11:25:27;;;;;;;24.52;13.95;;;;;;;20.26;51.67;94446.59;5110803;28;20208;-92
2022/12/08 11:27:58;;;;;;;26.35;13.77;;;;;;;20.16;51.13;94448.56;5110119;28;20211;-93
2022/12/08 11:30:28;;;;;;;22.17;12.98;;;;;;;20.28;51.60;94441.84;5099645;28;20227;-82